createdAt,value
2023-03-01T00:00:33.138Z,36.80
2023-03-01T00:11:07.519Z,43.60
2023-03-01T00:21:31.767Z,30.50
2023-03-01T00:31:56.105Z,35.40
2023-03-01T00:42:20.341Z,44.20
2023-03-01T00:52:44.751Z,48.60
2023-03-01T01:03:08.913Z,57.30
2023-03-01T01:13:33.899Z,46.60
2023-03-01T01:23:59.736Z,39.50
2023-03-01T01:34:24.321Z,51.30
2023-03-01T01:44:49.399Z,52.20
2023-03-01T01:55:21.371Z,61.00
2023-03-01T02:05:55.559Z,57.90
2023-03-01T02:16:20.242Z,64.00
2023-03-01T02:26:50.819Z,82.20
2023-03-01T02:37:21.953Z,77.50
2023-03-01T02:47:46.296Z,85.80
2023-03-01T02:58:10.892Z,74.20
2023-03-01T03:08:35.075Z,64.50
2023-03-01T03:19:05.401Z,57.80
2023-03-01T03:29:29.660Z,69.10
2023-03-01T03:39:55.183Z,64.30
2023-03-01T03:50:19.975Z,54.00
2023-03-01T04:00:45.428Z,59.30
2023-03-01T04:11:27.839Z,59.60
2023-03-01T04:21:52.160Z,57.00
2023-03-01T04:32:17.065Z,56.60
2023-03-01T04:42:41.340Z,55.00
2023-03-01T04:53:05.545Z,55.30
2023-03-01T05:03:29.763Z,47.80
2023-03-01T05:13:55.390Z,52.30
2023-03-01T05:24:19.628Z,71.50
2023-03-01T05:34:44.492Z,70.60
2023-03-01T05:45:11.169Z,210.10
2023-03-01T05:55:36.132Z,130.00
2023-03-01T06:06:00.548Z,73.70
2023-03-01T06:16:24.759Z,74.00
2023-03-01T06:26:48.947Z,68.40
2023-03-01T06:37:13.165Z,71.70
2023-03-01T06:47:37.435Z,72.10
2023-03-01T06:58:03.277Z,80.40
2023-03-01T07:08:27.591Z,78.10
2023-03-01T07:18:52.623Z,105.60
2023-03-01T07:29:18.492Z,86.20
2023-03-01T07:39:43.224Z,96.00
2023-03-01T07:50:10.910Z,67.20
2023-03-01T08:00:35.174Z,70.10
2023-03-01T08:11:00.795Z,49.60
2023-03-01T08:21:25.736Z,47.90
2023-03-01T08:31:50.712Z,49.10
2023-03-01T08:42:15.097Z,44.20
2023-03-01T08:52:40.160Z,38.90
2023-03-01T09:03:05.326Z,41.80
2023-03-01T09:13:31.541Z,42.10
2023-03-01T09:23:58.252Z,32.00
2023-03-01T09:34:23.643Z,20.10
2023-03-01T09:44:52.624Z,21.00
2023-03-01T09:55:27.636Z,20.50
2023-03-01T10:06:06.475Z,26.40
2023-03-01T10:27:04.123Z,23.80
2023-03-01T10:37:28.889Z,27.00
2023-03-01T10:48:06.682Z,24.70
2023-03-01T10:58:31.951Z,23.90
2023-03-01T11:08:57.410Z,25.00
2023-03-01T11:19:23.283Z,21.10
2023-03-01T11:29:53.322Z,22.60
2023-03-01T11:40:22.829Z,25.30
2023-03-01T11:50:49.237Z,23.70
2023-03-01T12:01:33.738Z,26.50
2023-03-01T12:12:13.688Z,29.60
2023-03-01T12:22:53.236Z,23.90
2023-03-01T12:33:31.035Z,28.90
2023-03-01T12:44:07.416Z,28.30
2023-03-01T12:54:34.002Z,33.80
2023-03-01T13:05:24.569Z,28.90
2023-03-01T13:15:51.711Z,30.50
2023-03-01T13:26:17.862Z,29.80
2023-03-01T13:36:50.584Z,26.60
2023-03-01T13:47:18.862Z,24.80
2023-03-01T13:57:47.398Z,29.10
2023-03-01T14:08:24.640Z,28.30
2023-03-01T14:18:57.498Z,27.80
2023-03-01T14:29:35.050Z,18.50
2023-03-01T14:40:01.380Z,23.50
2023-03-01T14:50:29.392Z,23.00
2023-03-01T15:00:56.007Z,22.80
2023-03-01T15:11:24.895Z,22.50
2023-03-01T15:32:28.687Z,16.10
2023-03-01T15:42:52.997Z,22.00
2023-03-01T15:53:18.432Z,20.70
2023-03-01T16:03:43.295Z,18.10
2023-03-01T16:14:09.555Z,22.10
2023-03-01T16:24:36.307Z,25.20
2023-03-01T16:35:00.509Z,20.60
2023-03-01T16:45:25.573Z,18.90
2023-03-01T16:55:56.574Z,21.00
2023-03-01T17:06:25.136Z,26.50
2023-03-01T17:16:49.424Z,114.30
2023-03-01T17:27:15.496Z,87.60
2023-03-01T17:37:52.829Z,54.30
2023-03-01T17:48:17.426Z,73.50
2023-03-01T17:58:42.558Z,65.70
2023-03-01T18:09:08.533Z,67.50
2023-03-01T18:19:33.923Z,51.80
2023-03-01T18:29:59.078Z,34.20
2023-03-01T18:40:24.016Z,28.20
2023-03-01T18:50:48.889Z,38.90
2023-03-01T19:01:16.222Z,30.30
2023-03-01T19:11:40.486Z,46.30
2023-03-01T19:22:06.374Z,36.30
2023-03-01T19:32:32.369Z,25.30
2023-03-01T19:42:56.679Z,29.90
2023-03-01T19:53:21.704Z,27.30
2023-03-01T20:03:46.507Z,29.60
2023-03-01T20:14:14.067Z,26.60
2023-03-01T20:24:38.371Z,25.90
2023-03-01T20:35:03.627Z,33.70
2023-03-01T20:45:28.386Z,30.90
2023-03-01T20:55:52.612Z,37.80
2023-03-01T21:06:17.277Z,34.30
2023-03-01T21:16:45.048Z,29.20
2023-03-01T21:27:09.637Z,37.50
2023-03-01T21:37:33.853Z,29.90
2023-03-01T21:47:58.052Z,35.70
2023-03-01T21:58:22.817Z,35.80
2023-03-01T22:08:48.099Z,36.80
2023-03-01T22:19:13.609Z,28.10
2023-03-01T22:29:37.986Z,32.30
2023-03-01T22:40:02.842Z,34.80
2023-03-01T22:50:27.151Z,49.60
2023-03-01T23:00:51.352Z,38.20
2023-03-01T23:11:17.458Z,43.30
2023-03-01T23:21:45.968Z,47.50
2023-03-01T23:32:11.006Z,41.00
2023-03-01T23:42:35.244Z,74.00
2023-03-01T23:52:59.424Z,53.90
